Route Details

Aircraft Information
Group: North America Light
Types: B738, B752, B762
Route Data
Distance: 1109nm
Duration: 2h 50m
Origin METAR: KMIA 171053Z 21004KT 10SM FEW025 26/23 A2995 RMK AO2 SLP143 T02610233 $
Dest. METAR: MMMX 171044Z 26004KT 7SM SCT020 BKN080 14/12 A3034 NOSIG RMK 8/570 HZY CI
Freight Data
(for Aug 18, 2022)
Load Factor:
86%
Manifested Cargo: 72,426lbs
Financial History
Total Freight: 1,379,072lbs
Average Load: 0lbs/flt
Fuel Used: 510,914lbs
Avg. Fuel Used: 0lbs/flt
Fuel Expense: $574,912
Avg. Fuel Expense: $0
Avg. Fuel Cost: $0/lbs
Total Gross Income: $3,295,236
Pilot Pay: $3,113
Total Expenses: $376,700
Total Revenue: $2,333,619
Average Revenue: $0

Capitol Logistics 709




KMIA
Miami International Airport
Miami, Florida
MMMX
Benito Juárez International Airport
Mexico City,

Activity Log

Date Flight Route Aircraft Duration
08/05/2022 CPX709 GLADZ2 SHAQQ M580 IRDOV UM580 TADET UT154 ENAGA ENAG2A B738 3h 00m
11/11/2021 CPX210 MNATE2 MNATE MTH B646 CANOA UB646 XOPGI UR522 NUBEL UT31 PAZ UJ55 DATUL DATUL4A B752 3h 14m
09/27/2021 CPX210 MNATE2 MNATE MTH B646 CANOA UB646 XOPGI UR522 NUBEL UT31 PAZ UJ55 DATUL B752 3h 16m
12/02/2019 CPX210 MNATE2 MNATE MTH B646 CANOA UB646 XOPGI UR522 NUBEL UT31 PAZ UJ55 DATUL DATUL4A B763 3h 27m
10/13/2019 CPX210 KMIA/08R EONNS2 EONNS G430 AVION B646 CANOA UM346 AXOMU UR522 PAZ UJ55 DATUL DATU4A MMMX/SMO.D05L B763 3h 04m
08/31/2019 CPX210 MNATE2 MNATE MTH B646 CANOA UB646 XOPGI UR522 NUBEL UT31 PAZ UJ55 DATUL DATUL4A B763 2h 54m
08/12/2019 CPX210 BSTER2 WINCO CYY MINOW M580 IRDOV UM580 NUBEL UR522 COPOS UR522 PAZ UJ55 DATUL DATU4A B763 2h 43m
07/26/2019 CPX210 MNATE2 MNATE MTH B646 CANOA UB646 XOPGI UR522 NUBEL UT31 PAZ UJ55 DATUL DATUL4A B763 2h 56m
07/20/2019 CPX210 MNATE2 MNATE MTH B646 CANOA UB646 XOPGI UR522 NUBEL UT31 PAZ UJ55 DATUL DATUL4A B763 2h 52m
07/10/2019 CPX210 MNATE2 MNATE MTH B646 CANOA UB646 XOPGI UR522 NUBEL UT31 PAZ B763 2h 56m
06/28/2019 CPX210 MNATE2 MNATE MTH B646 CANOA UB646 XOPGI UR522 NUBEL UT31 PAZ UJ55 DATUL DATUL4A B763 2h 58m
06/16/2019 CPX210 MNATE2 MNATE MTH B646 CANOA UB646 XOPGI UR522 NUBEL UT31 PAZ UJ55 DATUL DATUL4A B763 3h 00m
04/07/2019 CPX210 MNATE2 MNATE MTH B646 CANOA UB646 XOPGI UR522 NUBEL UT31 PAZ UJ55 DATUL DATUL4A B763 3h 16m
02/13/2019 CPX210 MNATE2 MNATE MTH B646 CANOA UB646 XOPGI UR522 NUBEL UT31 PAZ UJ55 DATUL DATUL4A B763 3h 06m
02/04/2019 CPX210 MNATE2 MNATE LULLS Y196 CANOA B646 XOPGI UR522 LERUV UR522 PAZ UJ55 DATUL DATU1C B763 3h 10m
12/30/2018 CPX210 MNATE2 MNATE MTH B646 CANOA UB646 XOPGI UR522 NUBEL UT31 PAZ UJ55 DATUL DATUL4A B763 2h 54m
12/12/2018 CPX212 MNATE2 MNATE MTH B646 CANOA UB646 XOPGI UR522 NUBEL UT31 PAZ UJ55 DATUL DATUL4A B763 3h 06m